• Join FlightAware (Why Join?)
  • Login
  • US Flag 
11:20PM EST


 

Airport Tracker/Info


-or-


 

Live Flight TrackerFlight Track Log ✈ AMF1324 ✈ 2013年 11月 06日 ✈ KBUF - KBGM

Flight Track Log - Related Links

Times and Time Zones

All times are in EST time to prevent confusion due to time zone crossing. See the AMF1324 flight status page for this flight to view local times or setup timezone preferences in your user account.

Time Position Orientation Groundspeed Altitude Reporting Facility
EST Latitude Longitude Course Direction KTS MPH feet Rate Location/Type
06:24AM 42.9333 -78.7333 180° South 136 157 1,400  Level Buffalo TRACON
06:25AM 42.9167 -78.7333 180° South 141 162 2,700 1,500 Climbing Buffalo TRACON
06:27AM 42.9069 -78.5664 94° East 214 246 5,900 1,380 Climbing Cleveland Center
06:28AM 42.9089 -78.4697 88° East 218 251 7,500 1,320 Climbing Cleveland Center
06:29AM 42.9069 -78.3892 92° East 221 254 8,600 1,140 Climbing Cleveland Center
06:30AM 42.9053 -78.2992 91° East 227 261 9,900 1,200 Climbing Cleveland Center
06:31AM 42.9017 -78.2128 93° East 222 255 11,100 1,140 Climbing Cleveland Center
06:32AM 42.8906 -78.1317 101° East 219 252 12,300 900 Climbing Cleveland Center
06:33AM 42.8822 -78.0469 98° East 227 261 13,000 240 Climbing Cleveland Center
06:34AM 42.8669 -77.9519 102° East 257 296 12,900 -60 Descending Cleveland Center
06:35AM 42.8481 -77.8533 105° East 268 308 12,900  Level Cleveland Center
06:36AM 42.8317 -77.7550 103° East 265 305 13,000  Climbing Cleveland Center
06:37AM 42.8106 -77.6603 107° East 260 299 13,000  Level Cleveland Center
06:38AM 42.7783 -77.5733 117° Southeast 255 293 13,000  Level Cleveland Center
06:39AM 42.7408 -77.4900 121° Southeast 255 293 13,000  Level Cleveland Center
06:40AM 42.7036 -77.4072 121° Southeast 254 292 13,000  Level Cleveland Center
06:41AM 42.6658 -77.3244 122° Southeast 256 295 13,000  Level Cleveland Center
06:42AM 42.6292 -77.2408 121° Southeast 256 295 13,000  Level Cleveland Center
06:43AM 42.6003 -77.1508 114° Southeast 258 297 13,000  Level Cleveland Center
06:44AM 42.5683 -77.0636 116° Southeast 259 298 13,000  Level Cleveland Center
06:45AM 42.5192 -76.9686 125° Southeast 256 295 13,000  Level Cleveland Center
06:46AM 42.4803 -76.8897 124° Southeast 253 291 13,100 -240 Climbing Cleveland Center
06:47AM 42.4481 -76.8022 116° Southeast 258 297 12,600 -780 Descending Cleveland Center
06:48AM 42.4092 -76.7131 121° Southeast 270 311 11,600 -960 Descending Cleveland Center
06:49AM 42.3703 -76.6239 121° Southeast 275 316 10,700 -1,200 Descending Cleveland Center
06:50AM 42.3669 -76.5178 92° East 286 329 9,200 -1,920 Descending Cleveland Center
06:52AM 42.3611 -76.4089 94° East 290 334 6,900 -2,160 Descending Cleveland Center
06:53AM 42.3544 -76.3014 95° East 289 333 4,800 -1,620 Descending Cleveland Center
06:54AM 42.3497 -76.1825 93° East 288 331 3,700 -780 Descending Cleveland Center
06:55AM 42.3442 -76.0758 94° East 279 321 3,200 -300 Descending New York Center
06:56AM 42.3028 -76.0697 174° South 202 232 3,100 -60 Descending New York Center
06:57AM 42.2689 -76.0333 142° Southeast 174 200 3,100 -360 Level New York Center
06:58AM 42.2353 -75.9942 139° Southeast 153 176 2,400 -720 Descending New York Center